createdAt,value
2022-08-16T00:04:18.778Z,12.00
2022-08-16T00:09:23.369Z,12.40
2022-08-16T00:14:30.438Z,12.30
2022-08-16T00:19:41.336Z,14.70
2022-08-16T00:24:46.755Z,13.10
2022-08-16T00:30:08.616Z,16.00
2022-08-16T00:35:22.188Z,13.80
2022-08-16T00:40:55.348Z,12.80
2022-08-16T00:46:01.456Z,11.70
2022-08-16T00:51:25.310Z,14.30
2022-08-16T00:56:58.186Z,13.10
2022-08-16T01:02:00.474Z,14.80
2022-08-16T01:07:23.163Z,13.70
2022-08-16T01:12:26.647Z,12.30
2022-08-16T01:17:36.676Z,13.30
2022-08-16T01:22:59.535Z,16.00
2022-08-16T01:28:09.758Z,14.50
2022-08-16T01:33:15.126Z,12.80
2022-08-16T01:38:20.805Z,16.90
2022-08-16T01:43:25.155Z,11.90
2022-08-16T01:48:31.520Z,13.00
2022-08-16T01:53:34.339Z,13.70
2022-08-16T01:58:37.558Z,10.50
2022-08-16T02:03:51.952Z,14.80
2022-08-16T02:08:55.421Z,13.70
2022-08-16T02:13:58.178Z,14.10
2022-08-16T02:19:01.347Z,11.70
2022-08-16T02:24:32.191Z,13.80
2022-08-16T02:29:31.946Z,13.50
2022-08-16T02:34:40.913Z,12.90
2022-08-16T02:39:43.891Z,14.60
2022-08-16T02:44:46.655Z,16.60
2022-08-16T02:49:59.188Z,13.70
2022-08-16T02:55:15.711Z,13.70
2022-08-16T03:00:33.547Z,12.90
2022-08-16T03:05:36.562Z,14.60
2022-08-16T03:10:41.521Z,12.40
2022-08-16T03:15:50.595Z,15.00
2022-08-16T03:20:55.717Z,15.10
2022-08-16T03:25:59.041Z,15.50
2022-08-16T03:31:02.490Z,12.90
2022-08-16T03:36:30.203Z,12.80
2022-08-16T03:41:50.958Z,17.00
2022-08-16T03:46:52.002Z,13.40
2022-08-16T03:51:54.686Z,14.80
2022-08-16T03:56:58.677Z,13.70
2022-08-16T04:02:04.211Z,14.80
2022-08-16T04:07:15.865Z,12.90
2022-08-16T04:12:54.779Z,15.50
2022-08-16T04:17:42.138Z,18.40
2022-08-16T04:22:45.260Z,16.30
2022-08-16T04:27:54.044Z,17.50
2022-08-16T04:32:59.550Z,20.00
2022-08-16T04:38:10.877Z,13.10
2022-08-16T04:43:23.882Z,15.50
2022-08-16T04:48:32.833Z,12.90
2022-08-16T04:53:37.151Z,15.40
2022-08-16T04:58:46.637Z,15.00
2022-08-16T05:09:04.577Z,15.50
2022-08-16T05:14:07.522Z,15.10
2022-08-16T05:19:13.394Z,15.20
2022-08-16T05:24:22.167Z,14.40
2022-08-16T05:29:59.404Z,16.50
2022-08-16T05:34:50.733Z,15.30
2022-08-16T05:39:53.719Z,14.00
2022-08-16T05:44:58.241Z,16.80
2022-08-16T05:50:00.969Z,15.20
2022-08-16T05:55:06.376Z,15.00
2022-08-16T06:00:14.390Z,16.60
2022-08-16T06:05:25.778Z,18.00
2022-08-16T06:10:32.402Z,14.70
2022-08-16T06:15:36.178Z,15.50
2022-08-16T06:20:55.203Z,15.30
2022-08-16T06:25:58.622Z,15.20
2022-08-16T06:31:02.671Z,14.00
2022-08-16T06:36:09.237Z,15.80
2022-08-16T06:41:14.047Z,15.10
2022-08-16T06:46:31.344Z,16.60
2022-08-16T06:51:46.375Z,14.50
2022-08-16T06:56:52.337Z,14.00
2022-08-16T07:01:58.476Z,14.00
2022-08-16T07:07:02.998Z,14.70
2022-08-16T07:12:06.635Z,16.90
2022-08-16T07:17:11.432Z,15.40
2022-08-16T07:22:36.706Z,14.00
2022-08-16T07:27:41.824Z,18.80
2022-08-16T07:32:51.444Z,15.90
2022-08-16T07:37:54.816Z,16.40
2022-08-16T07:42:57.951Z,16.30
2022-08-16T07:48:00.677Z,14.70
2022-08-16T07:53:15.201Z,16.00
2022-08-16T07:58:34.377Z,15.40
2022-08-16T08:03:39.225Z,16.40
2022-08-16T08:08:49.585Z,17.00
2022-08-16T08:14:03.925Z,14.80
2022-08-16T08:19:12.436Z,15.90
2022-08-16T08:24:15.517Z,16.80
2022-08-16T08:29:22.472Z,16.80
2022-08-16T08:34:26.171Z,17.20
2022-08-16T08:39:28.995Z,15.60
2022-08-16T08:44:36.520Z,15.50
2022-08-16T08:49:46.144Z,15.50
2022-08-16T08:54:53.417Z,15.70
2022-08-16T08:59:58.117Z,13.50
2022-08-16T09:05:00.833Z,13.30
2022-08-16T09:10:20.695Z,14.50
2022-08-16T09:15:24.424Z,14.00
2022-08-16T09:20:29.656Z,13.00
2022-08-16T09:25:33.785Z,13.40
2022-08-16T09:30:44.427Z,12.90
2022-08-16T09:35:53.254Z,10.80
2022-08-16T09:40:58.734Z,11.40
2022-08-16T09:46:03.674Z,11.80
2022-08-16T09:51:30.740Z,9.60
2022-08-16T09:56:52.536Z,13.10
2022-08-16T10:01:56.435Z,10.40
2022-08-16T10:17:25.269Z,13.20
2022-08-16T10:22:28.137Z,12.10
2022-08-16T10:27:46.093Z,11.00
2022-08-16T10:32:51.332Z,11.90
2022-08-16T10:37:54.091Z,8.70
2022-08-16T10:43:00.348Z,8.90
2022-08-16T10:48:04.239Z,7.80
2022-08-16T10:53:07.756Z,8.00
2022-08-16T10:58:13.480Z,10.30
2022-08-16T11:08:47.221Z,8.20
2022-08-16T11:14:06.007Z,9.80
2022-08-16T11:19:15.317Z,8.50
2022-08-16T11:29:40.971Z,10.80
2022-08-16T11:35:05.963Z,9.50
2022-08-16T11:40:08.184Z,8.60
2022-08-16T11:45:13.056Z,7.40
2022-08-16T11:50:17.325Z,7.40
2022-08-16T11:55:20.112Z,7.90
2022-08-16T12:00:33.891Z,9.00
2022-08-16T12:05:52.097Z,6.90
2022-08-16T12:10:59.481Z,7.20
2022-08-16T12:16:09.213Z,7.30
2022-08-16T12:21:12.491Z,10.30
2022-08-16T12:26:15.307Z,10.90
2022-08-16T12:31:18.257Z,9.70
2022-08-16T12:36:22.211Z,7.80
2022-08-16T12:41:25.359Z,6.50
2022-08-16T12:46:29.273Z,8.40
2022-08-16T12:51:58.245Z,6.90
2022-08-16T12:57:02.832Z,8.30
2022-08-16T13:02:06.504Z,6.40
2022-08-16T13:07:15.650Z,9.40
2022-08-16T13:12:26.806Z,7.80
2022-08-16T13:17:30.428Z,8.00
2022-08-16T13:22:33.671Z,9.80
2022-08-16T13:28:15.253Z,7.40
2022-08-16T13:32:59.754Z,8.70
2022-08-16T13:38:03.383Z,9.00
2022-08-16T13:43:06.590Z,12.80
2022-08-16T13:48:21.741Z,9.50
2022-08-16T13:53:28.439Z,10.40
2022-08-16T13:58:36.533Z,7.60
2022-08-16T14:03:41.895Z,7.40
2022-08-16T14:08:44.647Z,7.90
2022-08-16T14:14:01.901Z,8.80
2022-08-16T14:19:08.513Z,9.80
2022-08-16T14:24:22.405Z,8.30
2022-08-16T14:29:34.961Z,9.90
2022-08-16T14:34:40.935Z,8.90
2022-08-16T14:39:44.966Z,7.80
2022-08-16T14:44:48.314Z,9.80
2022-08-16T14:49:52.752Z,7.30
2022-08-16T14:54:55.491Z,11.40
2022-08-16T15:00:04.744Z,7.40
2022-08-16T15:05:11.354Z,9.90
2022-08-16T15:10:23.136Z,10.40
2022-08-16T15:15:29.329Z,9.60
2022-08-16T15:20:35.613Z,6.80
2022-08-16T15:25:42.981Z,8.80
2022-08-16T15:30:59.283Z,9.30
2022-08-16T15:36:04.598Z,6.80
2022-08-16T15:41:07.569Z,13.10
2022-08-16T15:46:35.144Z,8.80
2022-08-16T15:51:48.024Z,8.50
2022-08-16T15:56:55.180Z,8.80
2022-08-16T16:01:58.403Z,11.10
2022-08-16T16:07:03.749Z,7.40
2022-08-16T16:12:34.122Z,10.40
2022-08-16T16:17:30.916Z,9.10
2022-08-16T16:22:33.820Z,9.50
2022-08-16T16:27:37.179Z,6.00
2022-08-16T16:32:40.128Z,7.60
2022-08-16T16:37:43.895Z,8.60
2022-08-16T16:42:46.812Z,7.90
2022-08-16T16:47:49.827Z,9.70
2022-08-16T16:52:57.689Z,8.90
2022-08-16T16:58:35.263Z,7.50
2022-08-16T17:03:39.524Z,9.90
2022-08-16T17:08:43.158Z,9.80
2022-08-16T17:13:46.705Z,9.30
2022-08-16T17:19:15.561Z,9.90
2022-08-16T17:24:18.302Z,10.20
2022-08-16T17:29:22.258Z,7.80
2022-08-16T17:34:34.581Z,10.70
2022-08-16T17:40:00.313Z,11.20
2022-08-16T17:45:11.314Z,11.40
2022-08-16T17:50:14.209Z,10.90
2022-08-16T17:55:28.263Z,10.60
2022-08-16T18:00:32.210Z,9.20
2022-08-16T18:05:37.898Z,10.20
2022-08-16T18:10:42.037Z,9.60
2022-08-16T18:15:45.514Z,11.60
2022-08-16T18:21:08.768Z,8.50
2022-08-16T18:26:11.510Z,9.40
2022-08-16T18:31:14.211Z,9.40
2022-08-16T18:36:20.939Z,13.30
2022-08-16T18:41:26.769Z,9.50
2022-08-16T18:51:33.079Z,10.60
2022-08-16T18:56:54.212Z,9.50
2022-08-16T19:02:05.091Z,9.70
2022-08-16T19:07:08.386Z,11.10
2022-08-16T19:12:11.078Z,12.40
2022-08-16T19:17:18.591Z,16.00
2022-08-16T19:22:39.666Z,16.10
2022-08-16T19:27:49.648Z,15.40
2022-08-16T19:32:55.127Z,13.60
2022-08-16T19:37:57.913Z,12.90
2022-08-16T19:43:01.510Z,12.40
2022-08-16T19:48:05.884Z,14.10
2022-08-16T19:53:12.309Z,16.20
2022-08-16T19:58:23.013Z,18.30
2022-08-16T20:03:25.944Z,19.80
2022-08-16T20:08:28.767Z,16.40
2022-08-16T20:13:31.928Z,13.30
2022-08-16T20:18:34.825Z,14.10
2022-08-16T20:23:37.514Z,13.00
2022-08-16T20:28:52.625Z,12.90
2022-08-16T20:33:57.468Z,18.90
2022-08-16T20:39:03.036Z,13.70
2022-08-16T20:44:05.843Z,14.70
2022-08-16T20:49:12.707Z,11.20
2022-08-16T20:54:15.376Z,12.50
2022-08-16T20:59:18.104Z,13.00
2022-08-16T21:04:22.811Z,11.50
2022-08-16T21:09:29.159Z,16.00
2022-08-16T21:14:33.946Z,12.30
2022-08-16T21:19:37.062Z,10.30
2022-08-16T21:24:40.159Z,13.90
2022-08-16T21:29:45.786Z,12.20
2022-08-16T21:34:51.011Z,11.20
2022-08-16T21:39:53.743Z,15.40
2022-08-16T21:44:56.833Z,12.70
2022-08-16T21:49:59.530Z,12.00
2022-08-16T21:55:02.427Z,13.10
2022-08-16T22:00:12.713Z,12.60
2022-08-16T22:05:15.695Z,10.30
2022-08-16T22:11:06.162Z,13.30
2022-08-16T22:15:43.973Z,10.20
2022-08-16T22:20:47.511Z,12.90
2022-08-16T22:25:54.264Z,12.40
2022-08-16T22:30:57.199Z,13.30
2022-08-16T22:36:02.196Z,16.10
2022-08-16T22:41:05.306Z,12.90
2022-08-16T22:46:08.238Z,11.20
2022-08-16T22:51:10.897Z,10.50
2022-08-16T22:56:15.658Z,11.40
2022-08-16T23:01:21.491Z,15.00
2022-08-16T23:06:24.697Z,16.10
2022-08-16T23:11:27.436Z,23.00
2022-08-16T23:16:35.164Z,18.20
2022-08-16T23:21:40.837Z,18.30
2022-08-16T23:31:54.989Z,16.20
2022-08-16T23:36:57.797Z,18.90
2022-08-16T23:42:00.938Z,14.70
2022-08-16T23:47:05.312Z,13.50
2022-08-16T23:52:09.741Z,12.10
2022-08-16T23:57:12.620Z,15.10
